Time;durP1;ratioP1;P1;durP2;ratioP2;P2;SDS_P1;SDS_P2;PMS_P1;PMS_P2;Temp;Humidity;BMP_temperature;BMP_pressure;BME280_temperature;BME280_humidity;BME280_pressure;Samples;Min_cycle;Max_cycle;Signal;HPM_P1;HPM_P2
2023/01/14 00:01:26;;;;;;;11.95;6.32;;;;;;;8.04;100.00;100318.56;4995312;28;20042;-64
2023/01/14 00:03:52;;;;;;;15.05;7.57;;;;;;;7.97;100.00;100313.00;4997323;28;20038;-62
2023/01/14 00:06:20;;;;;;;14.38;6.95;;;;;;;8.09;100.00;100314.56;4995540;28;20236;-62
2023/01/14 00:08:46;;;;;;;11.05;5.93;;;;;;;8.12;100.00;100310.84;4993965;28;20355;-62
2023/01/14 00:11:13;;;;;;;12.45;6.63;;;;;;;8.18;100.00;100323.50;4995815;28;20030;-65
2023/01/14 00:13:40;;;;;;;15.57;6.88;;;;;;;8.09;100.00;100319.84;4995710;28;20133;-64
2023/01/14 00:16:10;;;;;;;13.60;6.50;;;;;;;8.18;100.00;100324.31;4996413;28;20234;-63
2023/01/14 00:18:36;;;;;;;9.65;5.93;;;;;;;8.28;100.00;100325.19;4996082;28;20042;-63
2023/01/14 00:21:14;;;;;;;13.38;6.20;;;;;;;8.28;100.00;100319.94;4995281;28;20085;-63
2023/01/14 00:23:40;;;;;;;12.45;6.57;;;;;;;8.30;100.00;100320.63;4996176;28;20374;-64
2023/01/14 00:26:12;;;;;;;10.75;6.28;;;;;;;8.16;100.00;100315.72;4995555;28;20042;-65
2023/01/14 00:28:38;;;;;;;10.63;6.07;;;;;;;8.16;100.00;100313.06;4995683;28;20249;-62
2023/01/14 00:31:07;;;;;;;10.48;6.43;;;;;;;8.17;100.00;100320.03;4995383;28;20047;-63
2023/01/14 00:33:33;;;;;;;10.05;6.28;;;;;;;8.00;100.00;100318.84;4994454;28;20278;-63
2023/01/14 00:35:59;;;;;;;11.73;6.85;;;;;;;8.16;100.00;100314.88;4996333;28;20081;-65
2023/01/14 00:38:25;;;;;;;12.02;6.63;;;;;;;8.24;100.00;100307.97;4996036;28;20058;-64
2023/01/14 00:41:00;;;;;;;11.77;6.18;;;;;;;8.24;100.00;100307.13;4995897;28;20046;-62
2023/01/14 00:43:26;;;;;;;10.93;6.35;;;;;;;8.32;100.00;100308.16;4996440;28;20041;-62
2023/01/14 00:45:51;;;;;;;10.68;5.88;;;;;;;8.55;100.00;100316.75;4994527;28;20054;-64
2023/01/14 00:48:16;;;;;;;10.00;5.43;;;;;;;8.75;100.00;100311.50;4996077;28;20038;-64
2023/01/14 00:50:42;;;;;;;10.80;5.57;;;;;;;8.96;100.00;100323.63;4996157;28;20247;-64
2023/01/14 00:53:07;;;;;;;10.65;6.35;;;;;;;9.09;100.00;100315.41;4995141;28;20081;-64
2023/01/14 00:55:34;;;;;;;10.88;6.05;;;;;;;9.24;100.00;100316.69;4994397;28;20045;-63
2023/01/14 00:57:59;;;;;;;8.60;5.72;;;;;;;9.39;100.00;100313.63;4995016;28;20275;-63
2023/01/14 01:00:25;;;;;;;10.88;5.88;;;;;;;9.43;100.00;100309.75;4995069;28;20045;-64
2023/01/14 01:02:50;;;;;;;10.38;5.50;;;;;;;9.50;100.00;100308.19;4996116;28;20270;-65
2023/01/14 01:05:16;;;;;;;10.23;5.93;;;;;;;9.57;100.00;100309.31;4993736;28;20519;-62
2023/01/14 01:07:42;;;;;;;10.40;5.50;;;;;;;9.62;100.00;100307.06;4995679;28;20080;-62
2023/01/14 01:10:08;;;;;;;9.48;5.70;;;;;;;9.65;100.00;100300.66;4995079;28;20034;-63
2023/01/14 01:12:34;;;;;;;8.80;5.65;;;;;;;9.71;100.00;100306.22;4992347;28;20247;-63
2023/01/14 01:14:59;;;;;;;12.35;5.57;;;;;;;9.71;100.00;100306.22;4994868;28;20026;-63
2023/01/14 01:17:24;;;;;;;8.98;5.15;;;;;;;9.73;100.00;100298.97;4994228;28;20345;-65
2023/01/14 01:19:52;;;;;;;9.55;5.47;;;;;;;9.79;100.00;100298.41;4995155;28;20339;-65
2023/01/14 01:22:17;;;;;;;9.88;6.03;;;;;;;9.75;100.00;100296.19;4994064;28;20034;-62
2023/01/14 01:24:43;;;;;;;10.68;5.88;;;;;;;9.69;100.00;100289.66;4993095;28;20331;-64
2023/01/14 01:27:08;;;;;;;11.00;5.55;;;;;;;9.54;100.00;100285.78;4993130;28;20092;-65
2023/01/14 01:29:33;;;;;;;10.25;5.95;;;;;;;9.57;100.00;100285.50;4993849;28;20030;-65
2023/01/14 01:31:59;;;;;;;9.38;5.45;;;;;;;9.65;100.00;100284.78;4995300;28;20448;-64
2023/01/14 01:34:24;;;;;;;8.93;5.55;;;;;;;9.64;100.00;100281.31;4994505;28;20037;-63
2023/01/14 01:36:50;;;;;;;10.20;5.53;;;;;;;9.67;100.00;100280.19;4993051;28;20052;-64
2023/01/14 01:39:15;;;;;;;9.23;5.10;;;;;;;9.70;100.00;100271.97;4992281;28;20040;-63
2023/01/14 01:41:41;;;;;;;8.48;4.10;;;;;;;9.71;100.00;100276.28;4994634;28;20038;-64
2023/01/14 01:44:10;;;;;;;9.10;5.40;;;;;;;9.68;100.00;100273.94;4994563;28;20049;-64
2023/01/14 01:46:36;;;;;;;8.68;4.93;;;;;;;9.66;100.00;100273.25;4993711;28;20050;-62
2023/01/14 01:49:16;;;;;;;9.13;4.93;;;;;;;9.66;100.00;100263.50;4995068;28;20528;-64
2023/01/14 01:51:44;;;;;;;8.63;5.80;;;;;;;9.58;100.00;100258.94;4994279;28;20440;-64
2023/01/14 01:54:10;;;;;;;10.40;6.03;;;;;;;9.41;100.00;100251.72;4994187;28;20281;-63
2023/01/14 01:56:39;;;;;;;8.13;5.18;;;;;;;9.49;100.00;100246.56;4993914;28;20563;-63
2023/01/14 01:59:09;;;;;;;8.13;4.95;;;;;;;9.45;100.00;100247.00;4993235;28;20193;-63
2023/01/14 02:01:35;;;;;;;8.63;5.38;;;;;;;9.14;100.00;100241.88;4993818;28;20100;-64
2023/01/14 02:04:00;;;;;;;10.80;5.47;;;;;;;9.10;100.00;100242.28;4993546;28;20041;-63
2023/01/14 02:06:26;;;;;;;8.73;5.25;;;;;;;9.07;100.00;100235.47;4993305;28;20050;-65
2023/01/14 02:08:54;;;;;;;9.20;5.47;;;;;;;9.00;100.00;100238.81;4994520;28;20570;-65
2023/01/14 02:11:22;;;;;;;9.38;5.78;;;;;;;8.89;100.00;100235.34;4990817;28;20046;-63
2023/01/14 02:14:01;;;;;;;11.23;5.55;;;;;;;9.09;100.00;100230.06;4993388;28;20045;-63
2023/01/14 02:16:39;;;;;;;10.35;5.47;;;;;;;8.85;100.00;100231.31;4995332;28;20096;-65
2023/01/14 02:19:23;;;;;;;10.23;5.88;;;;;;;8.78;100.00;100232.84;4991782;28;20046;-62
2023/01/14 02:22:24;;;;;;;12.35;6.70;;;;;;;8.60;100.00;100224.78;4991965;28;20997;-63
2023/01/14 02:25:26;;;;;;;9.77;5.65;;;;;;;8.37;100.00;100225.16;4993973;28;20065;-62
2023/01/14 02:28:09;;;;;;;11.00;5.70;;;;;;;8.39;100.00;100223.22;4990581;28;20106;-63
2023/01/14 02:30:44;;;;;;;12.32;6.68;;;;;;;8.55;100.00;100219.06;4992403;28;20046;-64
2023/01/14 02:33:12;;;;;;;12.20;6.40;;;;;;;8.43;100.00;100224.63;4993640;28;20041;-65
2023/01/14 02:35:47;;;;;;;13.95;6.75;;;;;;;8.41;100.00;100224.75;4993873;28;20332;-63
2023/01/14 02:38:33;;;;;;;9.63;6.15;;;;;;;8.48;100.00;100222.41;4993033;28;20097;-64
2023/01/14 02:44:07;;;;;;;12.98;6.88;;;;;;;8.41;100.00;100231.84;4990623;28;20054;-64
2023/01/14 02:44:21;;;;;;;12.90;6.75;;;;;;;8.30;100.00;100233.56;4993060;28;20359;-63
2023/01/14 02:46:54;;;;;;;;;;;;;;;8.47;100.00;100234.75;4994671;28;20046;-64
2023/01/14 02:49:32;;;;;;;13.65;6.68;;;;;;;8.56;100.00;100225.19;4993844;28;20166;-62
2023/01/14 02:51:59;;;;;;;16.75;7.97;;;;;;;8.60;100.00;100232.69;4992704;28;20068;-63
2023/01/14 02:54:24;;;;;;;11.80;6.68;;;;;;;8.83;100.00;100237.72;4994599;28;20034;-63
2023/01/14 02:56:51;;;;;;;14.80;6.68;;;;;;;8.94;100.00;100240.22;4993011;28;20362;-65
2023/01/14 02:59:54;;;;;;;10.40;6.90;;;;;;;9.08;100.00;100238.94;4994655;28;20374;-63
2023/01/14 03:02:38;;;;;;;13.50;7.03;;;;;;;9.14;100.00;100239.22;4992299;28;20128;-63
2023/01/14 03:05:08;;;;;;;12.30;7.13;;;;;;;9.19;100.00;100244.91;4990916;28;20042;-63
2023/01/14 03:07:53;;;;;;;13.38;8.13;;;;;;;9.25;100.00;100235.59;4993739;28;20092;-65
2023/01/14 03:10:41;;;;;;;14.57;7.22;;;;;;;9.33;100.00;100246.28;4991747;28;20207;-63
2023/01/14 03:13:13;;;;;;;14.95;7.57;;;;;;;9.37;100.00;100246.88;4992176;28;20046;-62
2023/01/14 03:15:48;;;;;;;13.68;7.85;;;;;;;9.48;100.00;100247.53;4990263;28;20286;-63
2023/01/14 03:18:47;;;;;;;17.70;8.75;;;;;;;9.59;100.00;100255.31;4993082;28;20122;-63
2023/01/14 03:21:18;;;;;;;14.57;7.20;;;;;;;9.62;100.00;100245.41;4992822;28;20057;-64
2023/01/14 03:23:57;;;;;;;17.63;8.48;;;;;;;9.67;100.00;100251.94;4993232;28;20034;-63
2023/01/14 03:26:25;;;;;;;16.85;9.55;;;;;;;9.68;100.00;100239.56;4992259;28;20041;-63
2023/01/14 03:28:50;;;;;;;32.83;13.30;;;;;;;9.71;100.00;100236.63;4992402;28;20331;-64
2023/01/14 03:31:22;;;;;;;19.90;10.90;;;;;;;9.78;100.00;100245.66;4993881;28;20041;-62
2023/01/14 03:33:55;;;;;;;21.00;10.40;;;;;;;9.82;100.00;100239.91;4993422;28;20137;-64
2023/01/14 03:36:24;;;;;;;23.42;11.43;;;;;;;9.89;100.00;100240.19;4990760;28;20038;-64
2023/01/14 03:38:57;;;;;;;18.50;8.90;;;;;;;9.96;99.70;100243.06;4993489;28;20109;-63
2023/01/14 03:44:43;;;;;;;20.85;10.07;;;;;;;10.12;99.14;100245.91;4992905;28;20042;-65
2023/01/14 03:47:08;;;;;;;18.02;9.07;;;;;;;10.16;98.69;100252.59;4961528;28;20082;-63
2023/01/14 03:49:34;;;;;;;17.55;8.48;;;;;;;10.19;98.27;100255.78;4993437;28;20034;-63
2023/01/14 03:52:02;;;;;;;13.70;8.38;;;;;;;10.21;98.60;100253.00;4992746;28;20038;-63
2023/01/14 03:54:36;;;;;;;14.32;7.63;;;;;;;10.11;97.97;100252.19;4993194;28;20390;-64
2023/01/14 03:57:14;;;;;;;;;;;;;;;10.07;98.46;100256.94;4991787;28;20034;-64
2023/01/14 03:59:49;;;;;;;13.57;7.75;;;;;;;10.08;98.75;100260.41;4992249;28;20265;-63
2023/01/14 04:02:15;;;;;;;16.00;8.43;;;;;;;10.12;99.06;100251.22;4992272;28;20054;-63
2023/01/14 04:04:43;;;;;;;14.30;7.88;;;;;;;10.15;98.93;100253.56;4993007;28;20328;-63
2023/01/14 04:07:09;;;;;;;17.10;7.90;;;;;;;10.18;98.85;100255.91;4992259;28;20236;-65
2023/01/14 04:09:35;;;;;;;16.38;9.20;;;;;;;10.22;98.27;100258.16;4993531;28;20030;-64
2023/01/14 04:12:00;;;;;;;15.40;8.65;;;;;;;10.22;97.62;100252.84;4992592;28;20038;-62
2023/01/14 04:17:10;;;;;;;23.88;10.82;;;;;;;10.19;97.95;100252.28;4992349;28;20080;-65
2023/01/14 04:19:35;;;;;;;25.45;11.38;;;;;;;10.15;97.86;100248.28;4991965;28;20042;-63
2023/01/14 04:22:00;;;;;;;24.77;10.82;;;;;;;10.18;98.31;100254.09;4993048;28;20038;-63
2023/01/14 04:24:26;;;;;;;21.20;10.57;;;;;;;10.15;97.78;100254.41;4991080;28;20065;-63
2023/01/14 04:26:51;;;;;;;21.60;10.98;;;;;;;9.89;98.64;100253.41;4992220;28;20049;-63
2023/01/14 04:29:17;;;;;;;25.67;11.40;;;;;;;9.79;100.00;100252.59;4991857;28;20101;-65
2023/01/14 04:31:42;;;;;;;23.98;12.10;;;;;;;9.64;100.00;100249.59;4993218;28;20045;-64
2023/01/14 04:34:10;;;;;;;23.73;11.13;;;;;;;9.56;100.00;100258.25;4996980;28;20113;-63
2023/01/14 04:36:35;;;;;;;20.67;10.82;;;;;;;9.62;100.00;100254.19;4995209;28;20030;-62
2023/01/14 04:39:01;;;;;;;18.17;8.85;;;;;;;9.37;100.00;100252.16;4993336;28;20358;-64
2023/01/14 04:44:10;;;;;;;18.65;9.07;;;;;;;9.32;100.00;100251.72;4995635;28;20072;-62
2023/01/14 04:46:36;;;;;;;18.27;8.23;;;;;;;9.33;100.00;100250.75;4996493;28;20039;-63
2023/01/14 04:49:01;;;;;;;16.13;8.02;;;;;;;9.45;100.00;100258.41;4996480;28;20438;-62
2023/01/14 04:51:27;;;;;;;17.23;8.55;;;;;;;9.54;100.00;100256.72;4996978;28;20038;-62
2023/01/14 04:53:54;;;;;;;19.48;9.23;;;;;;;9.52;100.00;100259.50;4995684;28;20205;-64
2023/01/14 04:56:19;;;;;;;23.00;10.77;;;;;;;9.62;100.00;100256.81;4995525;28;20041;-64
2023/01/14 04:58:45;;;;;;;20.02;9.52;;;;;;;9.75;100.00;100259.16;4995349;28;20372;-63
2023/01/14 05:01:10;;;;;;;22.25;10.18;;;;;;;9.82;100.00;100265.53;4992899;28;20035;-63
2023/01/14 05:03:37;;;;;;;23.63;11.05;;;;;;;9.81;100.00;100267.34;4994677;28;20034;-64
2023/01/14 05:06:02;;;;;;;24.73;10.43;;;;;;;9.87;100.00;100272.06;4994973;28;20038;-65
2023/01/14 05:08:28;;;;;;;27.48;11.68;;;;;;;9.89;100.00;100266.63;4995724;28;20156;-64
2023/01/14 05:10:53;;;;;;;24.55;11.38;;;;;;;9.91;100.00;100267.31;4996748;28;20061;-63
2023/01/14 05:13:18;;;;;;;22.92;10.98;;;;;;;9.97;100.00;100272.03;4996103;28;20346;-63
2023/01/14 05:15:45;;;;;;;23.95;10.50;;;;;;;10.02;99.46;100275.06;4994470;28;20038;-63
2023/01/14 05:18:12;;;;;;;27.45;11.70;;;;;;;10.08;99.76;100269.19;4993343;28;20119;-63
2023/01/14 05:20:39;;;;;;;25.60;11.73;;;;;;;10.14;99.55;100265.13;4994994;28;20107;-64
2023/01/14 05:23:07;;;;;;;23.00;11.13;;;;;;;10.14;99.42;100273.06;4995300;28;20146;-64
2023/01/14 05:25:34;;;;;;;31.58;13.05;;;;;;;10.16;99.17;100273.75;4995017;28;20034;-63
2023/01/14 05:28:02;;;;;;;29.60;12.82;;;;;;;10.12;98.54;100269.72;4994475;28;20102;-63
2023/01/14 05:30:28;;;;;;;285.75;87.43;;;;;;;10.02;99.03;100264.47;4994681;28;20056;-65
2023/01/14 05:32:53;;;;;;;33.80;14.13;;;;;;;10.00;99.05;100263.78;4995581;28;20058;-63
2023/01/14 05:35:19;;;;;;;25.70;11.90;;;;;;;10.07;100.00;100269.34;4993478;28;20332;-64
2023/01/14 05:37:45;;;;;;;31.20;13.13;;;;;;;10.08;99.28;100268.34;4993985;28;20308;-63
2023/01/14 05:40:10;;;;;;;27.88;12.30;;;;;;;10.11;99.38;100270.72;4994535;28;20053;-64
2023/01/14 05:45:40;;;;;;;;;;;;;;;10.15;99.16;100267.63;4995564;28;20085;-64
2023/01/14 05:48:10;;;;;;;34.40;13.70;;;;;;;10.12;99.14;100269.72;4993843;28;20088;-63
2023/01/14 05:50:36;;;;;;;36.08;12.95;;;;;;;10.12;99.37;100270.56;4993236;28;20128;-62
2023/01/14 05:53:02;;;;;;;35.20;13.80;;;;;;;10.12;99.52;100269.72;4993037;28;20330;-62
2023/01/14 05:55:28;;;;;;;30.58;12.45;;;;;;;10.15;99.48;100261.50;4992446;28;20050;-64
2023/01/14 05:57:57;;;;;;;34.33;12.80;;;;;;;10.19;99.25;100263.72;4993680;28;20041;-62
2023/01/14 06:08:42;;;;;;;36.83;14.10;;;;;;;10.19;100.00;100258.41;4994274;28;20066;-63
2023/01/14 06:11:08;;;;;;;32.78;13.07;;;;;;;10.16;100.00;100256.06;4993094;28;20034;-64
2023/01/14 06:13:34;;;;;;;37.63;14.77;;;;;;;10.22;99.53;100262.63;4994667;28;20034;-64
2023/01/14 06:16:02;;;;;;;34.95;13.25;;;;;;;10.22;99.50;100263.44;4991393;28;20196;-64
2023/01/14 06:18:37;;;;;;;36.63;14.68;;;;;;;10.14;100.00;100260.66;4993354;28;20042;-66
2023/01/14 06:21:03;;;;;;;37.75;14.05;;;;;;;10.11;100.00;100260.13;4992904;28;20030;-65
2023/01/14 06:23:28;;;;;;;38.47;15.00;;;;;;;10.13;100.00;100258.16;4994152;28;20149;-63
2023/01/14 06:25:55;;;;;;;39.92;15.18;;;;;;;10.18;100.00;100253.28;4993270;28;20355;-64
2023/01/14 06:28:20;;;;;;;37.35;13.05;;;;;;;10.23;99.90;100254.53;4993222;28;20050;-63
2023/01/14 06:30:46;;;;;;;33.33;12.88;;;;;;;10.22;100.00;100254.66;4992958;28;20049;-63
2023/01/14 06:33:11;;;;;;;31.73;12.30;;;;;;;10.26;100.00;100252.56;4992915;28;20033;-65
2023/01/14 06:35:42;;;;;;;31.73;12.77;;;;;;;10.29;99.63;100254.91;4993755;28;20061;-62
2023/01/14 06:38:08;;;;;;;31.20;13.90;;;;;;;10.32;100.00;100262.56;4992460;28;20061;-63
2023/01/14 06:40:36;;;;;;;28.05;12.27;;;;;;;10.36;99.60;100256.81;4992929;28;20415;-62
2023/01/14 06:43:02;;;;;;;36.55;16.52;;;;;;;10.38;99.86;100257.50;4993859;28;20145;-64
2023/01/14 06:45:27;;;;;;;37.08;18.13;;;;;;;10.37;100.00;100250.53;4993162;28;20056;-65
2023/01/14 06:47:53;;;;;;;33.40;15.07;;;;;;;10.37;100.00;100250.53;4994072;28;20034;-63
2023/01/14 06:50:18;;;;;;;30.95;12.40;;;;;;;10.39;99.38;100255.69;4992988;28;20053;-62
2023/01/14 06:52:44;;;;;;;37.58;14.73;;;;;;;10.42;100.00;100256.25;4992750;28;20030;-62
2023/01/14 06:55:09;;;;;;;42.05;17.20;;;;;;;10.42;100.00;100260.72;4993541;28;20331;-65
2023/01/14 06:57:35;;;;;;;54.58;18.48;;;;;;;10.45;100.00;100263.91;4991706;28;20078;-64
2023/01/14 07:00:00;;;;;;;54.25;21.50;;;;;;;10.39;100.00;100268.94;4996268;28;20241;-62
2023/01/14 07:02:26;;;;;;;49.47;19.17;;;;;;;10.32;100.00;100266.03;4991692;28;20038;-62
2023/01/14 07:04:51;;;;;;;51.40;21.45;;;;;;;10.26;100.00;100269.28;4980561;28;20037;-63
2023/01/14 07:07:18;;;;;;;55.80;20.98;;;;;;;10.20;100.00;100257.47;4979717;28;20219;-64
2023/01/14 07:09:44;;;;;;;57.67;23.00;;;;;;;10.20;100.00;100265.41;4980351;28;20041;-65
2023/01/14 07:12:09;;;;;;;53.75;22.08;;;;;;;10.21;100.00;100271.53;4980433;28;20046;-63
2023/01/14 07:14:34;;;;;;;56.03;21.20;;;;;;;10.19;100.00;100269.00;4994257;28;20065;-63
2023/01/14 07:17:02;;;;;;;59.75;23.52;;;;;;;10.13;100.00;100266.94;4998468;28;20042;-65
2023/01/14 07:19:27;;;;;;;58.55;23.60;;;;;;;10.08;100.00;100273.66;4998192;28;20026;-65
2023/01/14 07:21:52;;;;;;;57.50;25.55;;;;;;;10.07;100.00;100277.28;4998652;28;20081;-63
2023/01/14 07:24:18;;;;;;;68.15;28.90;;;;;;;10.01;100.00;100277.84;4998782;28;20367;-62
2023/01/14 07:26:43;;;;;;;55.88;24.45;;;;;;;10.09;100.00;100276.16;4997824;28;20050;-62
2023/01/14 07:29:09;;;;;;;48.03;20.40;;;;;;;10.05;100.00;100274.78;4998524;28;20224;-65
2023/01/14 07:31:34;;;;;;;45.45;22.90;;;;;;;10.10;100.00;100279.63;4998542;28;20427;-65
2023/01/14 07:34:00;;;;;;;41.60;18.10;;;;;;;10.13;100.00;100277.53;4998495;28;20084;-62
2023/01/14 07:36:25;;;;;;;47.05;20.00;;;;;;;10.10;100.00;100284.91;4998676;28;20054;-63
2023/01/14 07:38:51;;;;;;;53.03;23.65;;;;;;;10.01;100.00;100277.84;4998697;28;20046;-65
2023/01/14 07:41:20;;;;;;;59.72;24.95;;;;;;;10.05;100.00;100284.53;4997908;28;20046;-64
2023/01/14 07:43:45;;;;;;;58.03;27.88;;;;;;;10.13;100.00;100279.34;4998809;28;20049;-63
2023/01/14 07:46:11;;;;;;;59.38;27.58;;;;;;;10.15;100.00;100295.91;4998190;28;20061;-62
2023/01/14 07:48:37;;;;;;;60.13;24.90;;;;;;;10.17;100.00;100278.91;4998168;28;20307;-65
2023/01/14 07:51:04;;;;;;;51.25;23.45;;;;;;;10.22;100.00;100284.63;4998097;28;20054;-63
2023/01/14 07:53:29;;;;;;;53.10;23.98;;;;;;;10.26;100.00;100286.97;4997820;28;20052;-62
2023/01/14 07:55:55;;;;;;;50.70;21.88;;;;;;;10.32;100.00;100292.50;4997771;28;20050;-64
2023/01/14 07:58:21;;;;;;;48.58;21.38;;;;;;;10.34;100.00;100285.25;4995505;28;20101;-63
2023/01/14 08:00:47;;;;;;;48.28;23.58;;;;;;;10.31;99.86;100288.19;4992367;28;20038;-63
2023/01/14 08:03:14;;;;;;;54.75;23.92;;;;;;;10.30;99.40;100286.53;4997466;28;20042;-65
2023/01/14 08:05:39;;;;;;;54.55;23.23;;;;;;;10.21;98.58;100280.31;4999304;28;20046;-64
2023/01/14 08:08:04;;;;;;;50.83;23.13;;;;;;;10.17;99.75;100283.34;5002100;28;20097;-63
2023/01/14 08:10:30;;;;;;;59.10;24.45;;;;;;;10.21;98.86;100287.41;5002034;28;20279;-63
2023/01/14 08:12:56;;;;;;;49.00;23.40;;;;;;;10.22;98.94;100284.63;5001443;28;20153;-65
2023/01/14 08:15:21;;;;;;;42.53;19.50;;;;;;;10.22;98.16;100289.06;5001522;28;20092;-62
2023/01/14 08:17:46;;;;;;;42.83;19.30;;;;;;;10.18;98.46;100293.78;5001267;28;20045;-63
2023/01/14 08:20:13;;;;;;;40.13;18.70;;;;;;;10.11;98.94;100289.22;5001683;28;20092;-62
2023/01/14 08:22:38;;;;;;;42.08;18.30;;;;;;;10.16;99.02;100297.56;5000629;28;20034;-63
2023/01/14 08:25:05;;;;;;;44.35;20.67;;;;;;;9.55;100.00;100303.31;5001806;28;20334;-65
2023/01/14 08:27:30;;;;;;;48.70;22.35;;;;;;;9.44;100.00;100306.13;5000825;28;20081;-64
2023/01/14 08:29:56;;;;;;;58.70;23.20;;;;;;;9.41;100.00;100311.69;5001254;28;20042;-63
2023/01/14 08:32:23;;;;;;;56.38;24.15;;;;;;;9.37;100.00;100310.31;5001605;28;20037;-64
2023/01/14 08:34:49;;;;;;;47.42;22.67;;;;;;;9.57;100.00;100310.13;5001581;28;20034;-63
2023/01/14 08:37:15;;;;;;;43.65;21.60;;;;;;;9.66;100.00;100303.16;5001347;28;20459;-65
2023/01/14 08:39:40;;;;;;;49.60;23.02;;;;;;;9.70;100.00;100303.72;4999823;28;20038;-63
2023/01/14 08:42:05;;;;;;;46.05;22.30;;;;;;;9.71;100.00;100306.22;4999981;28;20046;-64
2023/01/14 08:44:31;;;;;;;48.78;22.00;;;;;;;9.77;100.00;100307.44;4999824;28;20050;-64
2023/01/14 08:46:56;;;;;;;49.92;23.00;;;;;;;9.82;100.00;100297.28;4999207;28;20046;-64
2023/01/14 08:49:22;;;;;;;51.90;23.33;;;;;;;9.77;100.00;100304.81;5000036;28;20034;-62
2023/01/14 08:51:47;;;;;;;50.13;22.77;;;;;;;9.71;100.00;100293.00;4999683;28;20047;-63
2023/01/14 08:54:13;;;;;;;49.83;22.30;;;;;;;9.62;100.00;100298.31;4999955;28;20046;-63
2023/01/14 08:56:38;;;;;;;51.67;22.50;;;;;;;9.58;100.00;100297.75;4998554;28;20057;-65
2023/01/14 08:59:04;;;;;;;49.05;20.10;;;;;;;9.68;100.00;100301.22;4999229;28;20126;-65
2023/01/14 09:01:32;;;;;;;47.67;19.73;;;;;;;9.51;100.00;100299.28;4999423;28;20101;-63
2023/01/14 09:04:00;;;;;;;54.15;21.13;;;;;;;9.37;100.00;100305.03;4999509;28;20026;-63
2023/01/14 09:06:26;;;;;;;42.55;17.75;;;;;;;9.08;100.00;100302.34;4998333;28;20414;-65
2023/01/14 09:17:16;;;;;;;32.50;14.55;;;;;;;8.21;100.00;100292.41;4999729;28;20247;-64
2023/01/14 09:20:00;;;;;;;31.55;13.07;;;;;;;8.26;100.00;100295.47;5000578;28;20026;-62
2023/01/14 09:22:26;;;;;;;;;;;;;;;8.16;100.00;100291.97;5001284;28;20042;-63
2023/01/14 09:24:52;;;;;;;31.98;13.30;;;;;;;7.97;100.00;100284.81;5000256;28;20151;-63
2023/01/14 09:27:18;;;;;;;34.97;15.00;;;;;;;7.97;100.00;100290.09;5000085;28;20030;-63
2023/01/14 09:29:43;;;;;;;34.17;14.07;;;;;;;8.15;100.00;100287.66;5000605;28;20038;-63
2023/01/14 09:32:11;;;;;;;35.05;15.50;;;;;;;8.29;100.00;100283.81;5000151;28;20097;-65
2023/01/14 09:34:41;;;;;;;35.42;15.80;;;;;;;8.24;100.00;100278.13;5000376;28;20062;-63
2023/01/14 09:37:10;;;;;;;33.42;12.32;;;;;;;8.03;100.00;100286.09;5000213;28;20041;-63
2023/01/14 09:39:36;;;;;;;32.40;13.90;;;;;;;7.96;100.00;100283.16;5000368;28;20041;-62
2023/01/14 09:42:06;;;;;;;27.15;11.77;;;;;;;7.89;100.00;100294.34;4999453;28;20038;-64
2023/01/14 09:44:33;;;;;;;40.03;16.10;;;;;;;7.93;100.00;100282.56;5000090;28;20076;-64
2023/01/14 09:46:58;;;;;;;33.50;15.02;;;;;;;8.08;100.00;100277.78;5000493;28;20224;-64
2023/01/14 09:49:27;;;;;;;36.00;16.80;;;;;;;8.16;100.00;100270.88;4999863;28;20030;-63
2023/01/14 09:52:01;;;;;;;33.25;13.95;;;;;;;8.13;100.00;100270.31;5000486;28;20049;-63
2023/01/14 09:54:42;;;;;;;36.38;13.63;;;;;;;7.94;100.00;100279.81;4999548;28;20042;-65
2023/01/14 09:57:22;;;;;;;35.83;13.48;;;;;;;8.05;100.00;100267.50;4999360;28;20277;-64
2023/01/14 10:00:24;;;;;;;33.03;12.15;;;;;;;7.91;100.00;100274.78;5000010;28;20036;-62
2023/01/14 10:03:08;;;;;;;35.88;13.00;;;;;;;7.88;100.00;100271.59;4990248;28;20036;-63
2023/01/14 10:05:37;;;;;;;35.95;14.13;;;;;;;7.97;100.00;100269.00;4998316;28;20113;-64
2023/01/14 10:08:09;;;;;;;36.08;14.02;;;;;;;7.79;100.00;100260.03;4999739;28;20092;-65
2023/01/14 10:10:38;;;;;;;34.13;13.05;;;;;;;7.81;100.00;100265.19;4999917;28;20818;-65
2023/01/14 10:13:28;;;;;;;32.25;11.82;;;;;;;7.65;100.00;100263.84;5000113;28;20034;-63
2023/01/14 10:15:58;;;;;;;42.28;16.45;;;;;;;7.76;100.00;100259.47;4999789;28;20049;-63
2023/01/14 10:18:49;;;;;;;41.33;16.33;;;;;;;7.95;100.00;100264.81;4999508;28;20101;-64
2023/01/14 10:21:17;;;;;;;44.00;17.00;;;;;;;7.99;100.00;100258.31;4999561;28;20550;-62
2023/01/14 10:23:43;;;;;;;50.83;18.98;;;;;;;7.92;100.00;100262.44;4999551;28;20049;-62
2023/01/14 10:26:20;;;;;;;61.92;22.05;;;;;;;7.86;100.00;100255.06;4998724;28;20066;-62
2023/01/14 10:28:49;;;;;;;67.10;23.95;;;;;;;8.14;100.00;100262.25;4999249;28;20045;-63
2023/01/14 10:31:24;;;;;;;71.70;23.45;;;;;;;8.15;100.00;100257.81;4999561;28;20042;-63
2023/01/14 10:33:49;;;;;;;68.47;24.17;;;;;;;8.09;100.00;100243.34;4999310;28;20314;-65
2023/01/14 10:36:19;;;;;;;72.95;23.50;;;;;;;8.11;100.00;100251.97;4987454;28;20042;-64
2023/01/14 10:38:44;;;;;;;62.33;24.67;;;;;;;8.00;100.00;100247.63;4982044;28;20190;-62
2023/01/14 10:41:11;;;;;;;58.75;21.25;;;;;;;8.10;100.00;100245.03;4980641;28;20034;-63
2023/01/14 10:43:42;;;;;;;57.25;20.40;;;;;;;8.08;100.00;100240.84;4981861;28;20330;-65
2023/01/14 10:46:17;;;;;;;60.92;23.02;;;;;;;8.07;100.00;100237.38;4981557;28;20117;-62
2023/01/14 10:49:04;;;;;;;76.03;27.80;;;;;;;8.07;100.00;100232.09;4984205;28;20093;-63
2023/01/14 10:51:38;;;;;;;64.65;24.10;;;;;;;8.11;100.00;100237.94;4978058;28;20078;-63
2023/01/14 10:54:09;;;;;;;53.60;21.38;;;;;;;8.15;100.00;100227.00;4978058;28;20228;-62
2023/01/14 10:56:35;;;;;;;64.53;22.92;;;;;;;8.24;100.00;100234.09;4980965;28;20046;-64
2023/01/14 10:59:01;;;;;;;61.90;23.35;;;;;;;8.20;100.00;100226.59;4979528;28;20134;-64
2023/01/14 11:01:26;;;;;;;56.22;20.02;;;;;;;8.12;100.00;100226.44;4980571;28;20030;-62
2023/01/14 11:03:52;;;;;;;51.00;19.30;;;;;;;8.17;100.00;100226.84;4979204;28;20325;-62
2023/01/14 11:06:18;;;;;;;57.80;23.73;;;;;;;8.14;100.00;100227.97;4976820;28;20317;-63
2023/01/14 11:08:46;;;;;;;56.80;20.95;;;;;;;8.29;100.00;100229.25;4978751;28;20048;-64
2023/01/14 11:11:17;;;;;;;52.80;21.23;;;;;;;8.47;100.00;100228.66;4978610;28;20046;-65
2023/01/14 11:13:44;;;;;;;44.22;19.83;;;;;;;8.37;100.00;100223.34;4977084;28;20034;-63
2023/01/14 11:16:31;;;;;;;53.85;19.70;;;;;;;8.49;100.00;100221.44;4978419;28;20038;-63
2023/01/14 11:19:19;;;;;;;50.08;20.45;;;;;;;8.53;100.00;100222.81;4977287;28;20227;-64
2023/01/14 11:21:58;;;;;;;49.78;18.23;;;;;;;8.63;100.00;100231.59;4977017;28;20138;-62
2023/01/14 11:24:37;;;;;;;47.97;18.33;;;;;;;8.70;100.00;100226.59;4979490;28;20034;-62
2023/01/14 11:27:06;;;;;;;46.38;18.55;;;;;;;8.69;100.00;100223.13;4979597;28;20042;-63
2023/01/14 11:29:35;;;;;;;52.00;20.70;;;;;;;8.64;100.00;100220.06;4979182;28;20267;-63
2023/01/14 11:32:12;;;;;;;52.53;22.13;;;;;;;8.61;100.00;100222.97;4979891;28;20031;-65
2023/01/14 11:34:51;;;;;;;58.05;20.38;;;;;;;8.52;100.00;100226.44;4981032;28;20037;-64
2023/01/14 11:37:23;;;;;;;79.50;31.30;;;;;;;8.62;100.00;100228.13;4976834;28;20055;-62
2023/01/14 11:39:57;;;;;;;80.40;30.67;;;;;;;8.79;100.00;100223.94;4977747;28;20271;-62
2023/01/14 11:42:26;;;;;;;73.05;27.88;;;;;;;8.69;100.00;100222.28;4984020;28;20041;-65
2023/01/14 11:44:58;;;;;;;64.88;24.33;;;;;;;8.43;100.00;100227.25;4985013;28;20109;-65
2023/01/14 11:47:24;;;;;;;66.82;23.50;;;;;;;8.30;100.00;100228.28;4984595;28;20038;-62
2023/01/14 11:50:10;;;;;;;78.38;30.17;;;;;;;8.44;100.00;100227.13;4985526;28;20403;-63